Time;durP1;ratioP1;P1;durP2;ratioP2;P2;SDS_P1;SDS_P2;PMS_P1;PMS_P2;Temp;Humidity;BMP_temperature;BMP_pressure;BME280_temperature;BME280_humidity;BME280_pressure;Samples;Min_cycle;Max_cycle;Signal;HPM_P1;HPM_P2
2023/05/18 00:00:15;;;;;;;10.98;6.53;;;;;;;1.81;100.00;93459.59;2546052;23;20029;-80
2023/05/18 00:01:29;;;;;;;13.90;6.68;;;;;;;1.81;100.00;93456.97;2546095;23;20049;-80
2023/05/18 00:02:40;;;;;;;13.48;6.68;;;;;;;1.88;100.00;93455.19;2536872;23;20588;-81
2023/05/18 00:03:52;;;;;;;11.68;6.90;;;;;;;1.79;100.00;93454.66;2523574;23;20072;-81
2023/05/18 00:05:03;;;;;;;10.90;6.03;;;;;;;1.79;100.00;93459.16;2524881;23;20006;-80
2023/05/18 00:06:12;;;;;;;11.98;6.72;;;;;;;1.60;100.00;93446.81;2526145;23;20006;-80
2023/05/18 00:07:22;;;;;;;10.15;6.32;;;;;;;1.69;100.00;93452.63;2537671;23;20519;-80
2023/05/18 00:08:32;;;;;;;12.75;6.28;;;;;;;1.84;100.00;93453.59;2533204;23;20653;-80
2023/05/18 00:09:43;;;;;;;14.63;7.38;;;;;;;1.74;100.00;93447.03;2525116;23;20022;-79
2023/05/18 00:10:52;;;;;;;13.27;6.60;;;;;;;1.62;100.00;93450.59;2546786;23;20060;-79
2023/05/18 00:12:08;;;;;;;15.48;7.03;;;;;;;1.61;100.00;93438.56;2554026;23;20032;-80
2023/05/18 00:13:20;;;;;;;12.55;6.13;;;;;;;1.58;100.00;93446.38;2553897;23;20063;-79
2023/05/18 00:14:30;;;;;;;14.00;6.38;;;;;;;1.66;100.00;93442.75;2551625;23;20425;-79
2023/05/18 00:15:39;;;;;;;;;;;;;;;1.63;100.00;93441.59;2562974;23;20455;-79
2023/05/18 00:16:56;;;;;;;13.98;6.03;;;;;;;1.59;100.00;93438.16;2545676;23;20258;-80
2023/05/18 00:18:05;;;;;;;13.18;7.28;;;;;;;1.56;100.00;93433.56;2545685;23;20032;-80
2023/05/18 00:19:16;;;;;;;12.05;6.55;;;;;;;1.57;100.00;93436.97;2545912;23;20045;-81
2023/05/18 00:20:25;;;;;;;13.10;6.45;;;;;;;1.52;100.00;93435.38;2545787;23;20408;-80
2023/05/18 00:21:32;;;;;;;11.52;6.20;;;;;;;1.57;100.00;93437.72;2546542;23;20333;-79
2023/05/18 00:22:42;;;;;;;11.88;6.45;;;;;;;1.53;100.00;93434.25;2557950;23;20001;-81
2023/05/18 00:23:58;;;;;;;11.63;6.05;;;;;;;1.41;100.00;93429.19;2556214;23;20066;-80
2023/05/18 00:25:07;;;;;;;14.27;6.32;;;;;;;1.41;100.00;93435.22;2532982;23;20002;-79
2023/05/18 00:26:14;;;;;;;11.52;6.05;;;;;;;1.41;100.00;93429.19;2535144;23;20002;-80
2023/05/18 00:27:26;;;;;;;12.30;6.20;;;;;;;1.38;100.00;93428.00;2546019;23;20010;-80
2023/05/18 00:28:36;;;;;;;10.70;6.45;;;;;;;1.35;100.00;93430.56;2545127;23;20379;-80
2023/05/18 00:29:45;;;;;;;19.75;6.15;;;;;;;1.38;100.00;93429.88;2544843;23;20133;-81
2023/05/18 00:30:55;;;;;;;12.68;5.90;;;;;;;1.41;100.00;93422.03;2544958;23;20060;-79
2023/05/18 00:32:05;;;;;;;11.93;6.50;;;;;;;1.40;100.00;93419.75;2533014;23;20169;-80
2023/05/18 00:33:09;;;;;;;17.58;6.65;;;;;;;1.36;100.00;93418.91;2534950;23;20381;-80
2023/05/18 00:34:16;;;;;;;14.50;6.95;;;;;;;1.23;100.00;93416.47;2545529;23;20037;-79
2023/05/18 00:35:25;;;;;;;14.27;6.10;;;;;;;1.31;100.00;93419.19;2535571;23;20001;-80
2023/05/18 00:36:34;;;;;;;10.18;6.20;;;;;;;1.35;100.00;93423.41;2538387;23;20117;-81
2023/05/18 00:37:43;;;;;;;13.60;6.55;;;;;;;1.30;100.00;93421.06;2550432;23;20101;-79
2023/05/18 00:38:53;;;;;;;20.90;6.40;;;;;;;1.31;100.00;93419.19;2546484;23;20005;-79
2023/05/18 00:40:00;;;;;;;16.20;6.68;;;;;;;1.36;100.00;93426.81;2533958;23;20089;-80
2023/05/18 00:41:12;;;;;;;13.13;6.28;;;;;;;1.33;100.00;93423.03;2537825;23;20029;-80
2023/05/18 00:42:16;;;;;;;12.45;6.03;;;;;;;1.24;100.00;93422.50;2549895;23;20048;-79
2023/05/18 00:43:26;;;;;;;12.30;6.18;;;;;;;1.20;100.00;93425.03;2548534;23;20440;-80
2023/05/18 00:44:35;;;;;;;14.02;6.55;;;;;;;1.21;100.00;93423.94;2534972;23;20005;-80
2023/05/18 00:45:45;;;;;;;16.92;7.15;;;;;;;1.20;100.00;93425.03;2536826;23;20009;-80
2023/05/18 00:46:47;;;;;;;15.43;6.22;;;;;;;1.27;100.00;93424.41;2547615;23;20010;-80
2023/05/18 00:47:55;;;;;;;19.95;7.43;;;;;;;1.20;100.00;93427.69;2547551;23;20012;-79
2023/05/18 00:49:01;;;;;;;15.75;6.88;;;;;;;1.19;100.00;93422.78;2558361;23;20009;-80
2023/05/18 00:50:10;;;;;;;13.45;6.88;;;;;;;1.17;100.00;93430.25;2542217;23;20061;-79
2023/05/18 00:51:23;;;;;;;12.63;6.53;;;;;;;1.13;100.00;93422.28;2522370;23;20018;-80
2023/05/18 00:52:33;;;;;;;15.50;6.82;;;;;;;1.11;100.00;93421.13;2536397;23;20472;-79
2023/05/18 00:53:42;;;;;;;12.05;6.03;;;;;;;1.10;100.00;93425.63;2557732;23;20005;-80
2023/05/18 00:55:03;;;;;;;11.32;6.57;;;;;;;1.09;100.00;93423.31;2545747;23;20438;-79
2023/05/18 00:56:11;;;;;;;11.52;6.50;;;;;;;1.06;100.00;93419.53;2537728;23;20304;-80
2023/05/18 00:57:21;;;;;;;17.90;7.22;;;;;;;1.03;100.00;93414.19;2534223;23;20002;-81
2023/05/18 00:58:27;;;;;;;12.30;6.63;;;;;;;1.08;100.00;93416.53;2535331;23;20056;-80
2023/05/18 00:59:36;;;;;;;14.63;7.18;;;;;;;1.02;100.00;93410.81;2522171;23;20007;-80
2023/05/18 01:00:46;;;;;;;18.63;7.47;;;;;;;1.06;100.00;93410.88;2512645;23;20062;-80
2023/05/18 01:01:51;;;;;;;14.50;7.28;;;;;;;0.97;100.00;93411.09;2512827;23;20030;-80
2023/05/18 01:03:03;;;;;;;13.57;7.03;;;;;;;1.04;100.00;93413.06;2533804;23;20026;-80
2023/05/18 01:04:13;;;;;;;11.68;6.55;;;;;;;0.98;100.00;93415.22;2533349;23;20029;-80
2023/05/18 01:05:21;;;;;;;13.80;6.97;;;;;;;0.96;100.00;93412.16;2524539;23;20038;-80
2023/05/18 01:06:31;;;;;;;11.52;6.15;;;;;;;1.05;100.00;93411.97;2545692;23;20009;-80
2023/05/18 01:07:46;;;;;;;12.57;7.43;;;;;;;0.91;100.00;93410.59;2544902;23;19998;-79
2023/05/18 01:08:50;;;;;;;13.60;6.65;;;;;;;0.94;100.00;93407.25;2545492;23;20726;-81
2023/05/18 01:10:00;;;;;;;13.63;6.60;;;;;;;0.99;100.00;93411.50;2545017;23;20355;-79
2023/05/18 01:11:33;;;;;;;21.92;6.05;;;;;;;1.02;100.00;93412.66;2544253;23;20356;-79
2023/05/18 01:13:05;;;;;;;15.80;6.65;;;;;;;0.95;100.00;93402.75;2557802;23;20001;-79
2023/05/18 01:14:28;;;;;;;12.85;6.22;;;;;;;1.00;100.00;93407.75;2545496;23;20029;-79
2023/05/18 01:15:38;;;;;;;11.85;6.32;;;;;;;0.92;100.00;93404.22;2525854;23;20057;-79
2023/05/18 01:16:56;;;;;;;14.02;6.85;;;;;;;1.01;100.00;93414.53;2535759;23;20002;-80
2023/05/18 01:18:49;;;;;;;15.30;6.70;;;;;;;0.91;100.00;93407.94;2545546;23;20010;-80
2023/05/18 01:20:17;;;;;;;17.88;6.35;;;;;;;0.90;100.00;93406.44;2498229;23;20007;-79
2023/05/18 01:21:57;;;;;;;14.20;5.95;;;;;;;0.93;100.00;93411.00;2531820;23;20092;-79
2023/05/18 01:23:04;;;;;;;14.18;6.00;;;;;;;0.96;100.00;93412.16;2545817;23;20006;-80
2023/05/18 01:24:20;;;;;;;14.13;6.47;;;;;;;0.95;100.00;93414.03;2557787;23;20001;-80
2023/05/18 01:25:43;;;;;;;14.73;6.70;;;;;;;1.04;100.00;93407.81;2545404;23;20006;-80
2023/05/18 01:26:56;;;;;;;14.43;6.53;;;;;;;1.03;100.00;93411.56;2545651;23;20005;-78
2023/05/18 01:28:07;;;;;;;12.63;5.82;;;;;;;1.05;100.00;93409.31;2545553;23;20013;-80
2023/05/18 01:29:13;;;;;;;13.70;6.07;;;;;;;0.89;100.00;93399.66;2524468;23;20017;-80
2023/05/18 01:30:24;;;;;;;12.43;6.57;;;;;;;0.92;100.00;93409.50;2533985;23;20021;-80
2023/05/18 01:31:33;;;;;;;12.90;6.03;;;;;;;0.95;100.00;93400.13;2546125;23;20002;-80
2023/05/18 01:32:49;;;;;;;10.93;6.20;;;;;;;1.10;100.00;93411.66;2557755;23;20088;-80
2023/05/18 01:33:50;;;;;;;12.10;5.75;;;;;;;0.90;100.00;93406.44;2532938;23;20002;-79
2023/05/18 01:35:02;;;;;;;14.00;6.95;;;;;;;0.92;100.00;93398.19;2521494;23;20002;-80
2023/05/18 01:36:05;;;;;;;12.50;6.18;;;;;;;0.93;100.00;93397.84;2522700;23;20014;-80
2023/05/18 01:37:16;;;;;;;14.23;6.25;;;;;;;0.89;100.00;93401.53;2533003;23;20492;-80
2023/05/18 01:38:24;;;;;;;11.35;6.50;;;;;;;0.94;100.00;93395.97;2545493;23;20002;-80
2023/05/18 01:39:32;;;;;;;15.50;6.97;;;;;;;0.93;100.00;93397.84;2532847;23;20005;-80
2023/05/18 01:40:54;;;;;;;13.73;6.57;;;;;;;0.92;100.00;93393.72;2523900;23;20006;-80
2023/05/18 01:42:07;;;;;;;12.00;6.82;;;;;;;0.96;100.00;93391.88;2536314;23;20009;-79
2023/05/18 01:43:19;;;;;;;11.68;6.50;;;;;;;0.92;100.00;93395.56;2523504;23;20002;-80
2023/05/18 01:44:46;;;;;;;12.38;6.53;;;;;;;1.15;100.00;93395.63;2513761;23;20430;-79
2023/05/18 01:46:04;;;;;;;12.85;6.68;;;;;;;0.94;100.00;93395.97;2518471;23;20006;-80
2023/05/18 01:47:21;;;;;;;16.30;6.70;;;;;;;0.94;100.00;93383.59;2516229;23;20009;-80
2023/05/18 01:48:26;;;;;;;13.43;6.57;;;;;;;0.93;100.00;93389.19;2536120;23;20401;-80
2023/05/18 01:49:42;;;;;;;15.07;6.18;;;;;;;1.12;100.00;93388.41;2533362;23;20002;-80
2023/05/18 01:50:47;;;;;;;18.13;5.95;;;;;;;1.06;100.00;93392.44;2545227;23;20009;-80
2023/05/18 01:51:54;;;;;;;13.35;6.55;;;;;;;0.97;100.00;93390.78;2545492;23;20027;-79
2023/05/18 01:53:24;;;;;;;14.77;6.82;;;;;;;0.98;100.00;93389.69;2535176;23;20025;-79
2023/05/18 01:54:32;;;;;;;12.30;6.10;;;;;;;0.93;100.00;93389.19;2546966;23;20078;-79
2023/05/18 01:55:44;;;;;;;15.77;6.72;;;;;;;0.92;100.00;93387.66;2546632;23;20005;-80
2023/05/18 01:56:48;;;;;;;10.82;5.93;;;;;;;0.90;100.00;93390.66;2545195;23;20499;-79
2023/05/18 01:57:56;;;;;;;10.65;6.07;;;;;;;0.95;100.00;93382.47;2545331;23;20058;-79
2023/05/18 01:59:12;;;;;;;12.80;6.50;;;;;;;0.94;100.00;93386.22;2545452;23;20015;-79
2023/05/18 02:00:18;;;;;;;13.52;6.15;;;;;;;0.94;100.00;93380.94;2536678;23;20013;-80
2023/05/18 02:01:25;;;;;;;14.10;6.72;;;;;;;0.91;100.00;93376.38;2545310;23;20001;-80
2023/05/18 02:02:34;;;;;;;14.05;6.32;;;;;;;0.90;100.00;93380.13;2547883;23;20567;-79
2023/05/18 02:03:43;;;;;;;15.13;6.53;;;;;;;0.95;100.00;93374.56;2526026;23;20004;-80
2023/05/18 02:04:48;;;;;;;14.30;6.72;;;;;;;0.81;100.00;93371.69;2525166;23;20002;-79
2023/05/18 02:05:54;;;;;;;14.73;7.40;;;;;;;0.92;100.00;93370.03;2535882;23;20384;-79
2023/05/18 02:07:04;;;;;;;14.55;7.65;;;;;;;1.01;100.00;93367.19;2546068;23;20006;-80
2023/05/18 02:08:12;;;;;;;18.40;8.43;;;;;;;1.06;100.00;93368.75;2535398;23;20007;-79
2023/05/18 02:09:23;;;;;;;14.60;6.80;;;;;;;1.06;100.00;93368.75;2535056;23;20013;-79
2023/05/18 02:10:32;;;;;;;14.32;6.88;;;;;;;1.07;100.00;93372.91;2545510;23;20021;-79
2023/05/18 02:11:43;;;;;;;17.80;8.57;;;;;;;1.12;100.00;93372.63;2546119;23;20048;-79
2023/05/18 02:12:53;;;;;;;16.90;7.97;;;;;;;1.13;100.00;93367.00;2545486;23;20136;-80
2023/05/18 02:13:59;;;;;;;24.95;8.25;;;;;;;1.22;100.00;93364.13;2523063;23;20040;-80
2023/05/18 02:15:12;;;;;;;19.85;8.75;;;;;;;1.24;100.00;93354.03;2533622;23;20081;-81
2023/05/18 02:16:21;;;;;;;20.48;9.00;;;;;;;1.26;100.00;93359.69;2534217;23;20105;-80
2023/05/18 02:17:30;;;;;;;16.35;7.80;;;;;;;1.32;100.00;93350.41;2545760;23;20001;-78
2023/05/18 02:18:43;;;;;;;15.70;7.53;;;;;;;1.35;100.00;93354.94;2545482;23;20008;-80
2023/05/18 02:19:52;;;;;;;13.90;8.20;;;;;;;1.43;100.00;93358.47;2523120;23;20046;-79
2023/05/18 02:21:05;;;;;;;20.45;9.10;;;;;;;1.43;100.00;93351.31;2511887;23;20089;-79
2023/05/18 02:22:14;;;;;;;17.50;8.45;;;;;;;1.47;100.00;93351.41;2524612;23;20002;-81
2023/05/18 02:23:20;;;;;;;19.88;8.05;;;;;;;1.56;100.00;93357.19;2544342;23;20750;-80
2023/05/18 02:24:32;;;;;;;21.00;7.93;;;;;;;1.56;100.00;93353.78;2545685;23;20012;-79
2023/05/18 02:25:43;;;;;;;21.08;9.23;;;;;;;1.56;100.00;93354.53;2544918;23;20093;-79
2023/05/18 02:26:52;;;;;;;22.15;8.13;;;;;;;1.60;100.00;93351.97;2545031;23;20025;-79
2023/05/18 02:28:07;;;;;;;19.02;8.35;;;;;;;1.63;100.00;93346.75;2532368;23;20077;-79
2023/05/18 02:29:14;;;;;;;15.98;8.65;;;;;;;1.63;100.00;93351.28;2532270;23;20005;-79
2023/05/18 02:30:24;;;;;;;17.33;7.90;;;;;;;1.70;100.00;93340.84;2523173;23;20010;-79
2023/05/18 02:31:34;;;;;;;16.55;7.90;;;;;;;1.71;100.00;93350.25;2534721;23;20069;-80
2023/05/18 02:32:41;;;;;;;18.15;7.47;;;;;;;1.75;100.00;93345.78;2545462;23;20008;-79
2023/05/18 02:33:49;;;;;;;15.95;7.55;;;;;;;1.74;100.00;93346.91;2533734;23;20089;-80
2023/05/18 02:35:01;;;;;;;20.75;8.43;;;;;;;1.75;100.00;93349.19;2539124;23;20012;-80
2023/05/18 02:36:35;;;;;;;18.92;8.15;;;;;;;1.79;100.00;93343.97;2545077;23;20383;-80
2023/05/18 02:37:46;;;;;;;16.33;7.45;;;;;;;1.86;100.00;93349.38;2545880;23;20021;-80
2023/05/18 02:38:54;;;;;;;19.17;7.80;;;;;;;1.82;100.00;93342.53;2548604;23;20006;-80
2023/05/18 02:40:04;;;;;;;22.90;9.38;;;;;;;1.83;100.00;93338.75;2550871;23;20070;-79
2023/05/18 02:41:15;;;;;;;25.48;8.70;;;;;;;1.86;100.00;93344.09;2550186;23;19998;-79
2023/05/18 02:42:25;;;;;;;22.25;8.18;;;;;;;1.87;100.00;93342.22;2534472;23;20001;-80
2023/05/18 02:43:32;;;;;;;;;;;;;;;1.89;100.00;93337.34;2524809;23;20314;-79
2023/05/18 02:44:36;;;;;;;16.02;7.85;;;;;;;1.87;100.00;93342.97;2546344;23;19955;-80
2023/05/18 02:45:45;;;;;;;18.77;8.15;;;;;;;1.87;100.00;93336.94;2545289;23;20451;-79
2023/05/18 02:46:51;;;;;;;22.45;8.07;;;;;;;1.85;100.00;93336.56;2535492;23;20009;-79
2023/05/18 02:48:00;;;;;;;21.13;8.20;;;;;;;1.85;100.00;93336.56;2546601;23;20032;-80
2023/05/18 02:49:11;;;;;;;16.70;8.73;;;;;;;1.87;100.00;93339.56;2557093;23;20001;-80
2023/05/18 02:50:20;;;;;;;17.50;7.90;;;;;;;1.86;100.00;93344.09;2546073;23;20973;-80
2023/05/18 02:51:29;;;;;;;18.90;8.23;;;;;;;1.82;100.00;93335.38;2544078;23;20001;-79
2023/05/18 02:52:36;;;;;;;14.80;8.10;;;;;;;1.83;100.00;93336.88;2533087;23;20054;-80
2023/05/18 02:53:51;;;;;;;22.92;8.68;;;;;;;1.87;100.00;93342.97;2545436;23;20397;-79
2023/05/18 02:54:57;;;;;;;15.68;7.97;;;;;;;1.85;100.00;93339.94;2556713;23;20045;-80
2023/05/18 02:56:02;;;;;;;21.58;8.32;;;;;;;1.87;100.00;93336.94;2557060;23;20024;-80
2023/05/18 02:57:12;;;;;;;20.60;8.60;;;;;;;1.87;100.00;93334.31;2544922;23;20014;-79
2023/05/18 02:58:19;;;;;;;19.15;8.77;;;;;;;1.86;100.00;93349.38;2535055;23;20054;-80
2023/05/18 02:59:25;;;;;;;17.23;8.25;;;;;;;1.89;100.00;93339.97;2546452;23;20005;-80
2023/05/18 03:00:48;;;;;;;22.80;8.50;;;;;;;1.87;100.00;93339.56;2545646;23;20012;-79
2023/05/18 03:01:57;;;;;;;15.35;8.75;;;;;;;1.84;100.00;93333.13;2545393;23;20060;-80
2023/05/18 03:03:09;;;;;;;18.40;8.30;;;;;;;1.85;100.00;93339.19;2534248;23;19998;-80
2023/05/18 03:04:16;;;;;;;16.42;8.18;;;;;;;1.87;100.00;93339.56;2547653;23;20359;-79
2023/05/18 03:05:24;;;;;;;17.75;8.68;;;;;;;1.90;100.00;93342.28;2544639;23;20400;-79
2023/05/18 03:06:34;;;;;;;21.63;8.48;;;;;;;1.87;100.00;93340.34;2534437;23;20009;-79
2023/05/18 03:07:49;;;;;;;16.77;7.93;;;;;;;1.92;100.00;93342.66;2536143;23;20006;-79
2023/05/18 03:08:58;;;;;;;24.10;8.32;;;;;;;1.88;100.00;93338.47;2537203;23;20014;-79
2023/05/18 03:10:07;;;;;;;18.30;9.13;;;;;;;1.89;100.00;93348.66;2548810;23;20028;-79
2023/05/18 03:11:16;;;;;;;25.15;8.82;;;;;;;1.85;100.00;93350.47;2558484;23;20005;-80
2023/05/18 03:12:25;;;;;;;20.17;9.13;;;;;;;1.83;100.00;93347.44;2557857;23;20005;-80
2023/05/18 03:13:35;;;;;;;23.27;9.30;;;;;;;1.84;100.00;93348.19;2534932;23;20002;-80
2023/05/18 03:14:43;;;;;;;22.42;8.35;;;;;;;1.87;100.00;93350.13;2540874;23;20083;-80
2023/05/18 03:15:51;;;;;;;21.60;9.40;;;;;;;1.86;100.00;93346.72;2549999;23;20009;-80
2023/05/18 03:16:59;;;;;;;18.88;8.57;;;;;;;1.87;100.00;93342.22;2542174;23;20444;-80
2023/05/18 03:18:09;;;;;;;14.20;8.00;;;;;;;1.83;100.00;93350.06;2535139;23;20010;-81
2023/05/18 03:19:18;;;;;;;16.95;8.40;;;;;;;1.77;100.00;93349.59;2547455;23;20531;-79
2023/05/18 03:20:30;;;;;;;20.63;8.50;;;;;;;1.78;100.00;93345.09;2546127;23;20029;-81
2023/05/18 03:21:40;;;;;;;25.42;8.90;;;;;;;1.72;100.00;93354.44;2535531;23;20431;-79
2023/05/18 03:22:46;;;;;;;18.60;8.60;;;;;;;1.76;100.00;93347.34;2534302;23;20006;-80
2023/05/18 03:23:50;;;;;;;21.58;9.70;;;;;;;1.78;100.00;93339.81;2523569;23;20013;-79
2023/05/18 03:25:01;;;;;;;19.60;9.00;;;;;;;1.79;100.00;93349.25;2538064;23;19998;-80
2023/05/18 03:26:11;;;;;;;17.27;8.75;;;;;;;1.73;100.00;93351.44;2561034;23;20005;-79
2023/05/18 03:27:24;;;;;;;21.95;8.63;;;;;;;1.75;100.00;93351.06;2546500;23;20092;-80
2023/05/18 03:28:33;;;;;;;33.00;9.77;;;;;;;1.69;100.00;93350.63;2536304;23;20006;-80
2023/05/18 03:29:42;;;;;;;19.00;8.40;;;;;;;1.76;100.00;93355.25;2535207;23;20037;-79
2023/05/18 03:30:51;;;;;;;17.48;8.88;;;;;;;1.76;100.00;93360.50;2535442;23;20368;-79
2023/05/18 03:31:58;;;;;;;19.15;8.32;;;;;;;1.70;100.00;93349.50;2547664;23;20005;-80
2023/05/18 03:33:07;;;;;;;16.80;8.30;;;;;;;1.69;100.00;93349.84;2533281;23;20010;-79
2023/05/18 03:34:15;;;;;;;26.23;8.88;;;;;;;1.75;100.00;93348.44;2524360;23;20009;-80
2023/05/18 03:35:19;;;;;;;16.63;8.35;;;;;;;1.79;100.00;93354.50;2523000;23;20002;-79
2023/05/18 03:36:29;;;;;;;15.65;8.35;;;;;;;1.79;100.00;93359.03;2522746;23;20057;-80
2023/05/18 03:37:36;;;;;;;18.92;8.70;;;;;;;1.74;100.00;93352.19;2535931;23;20348;-81
2023/05/18 03:38:47;;;;;;;23.45;8.68;;;;;;;1.72;100.00;93351.78;2523074;23;20002;-79
2023/05/18 03:40:01;;;;;;;19.58;8.68;;;;;;;1.75;100.00;93353.69;2538269;23;20010;-79
2023/05/18 03:41:13;;;;;;;17.80;8.65;;;;;;;1.68;100.00;93349.09;2533293;23;20102;-80
2023/05/18 03:42:22;;;;;;;24.63;9.25;;;;;;;1.76;100.00;93349.97;2538705;23;20010;-79
2023/05/18 03:43:31;;;;;;;23.30;9.52;;;;;;;1.73;100.00;93350.66;2559641;23;20346;-80
2023/05/18 03:44:40;;;;;;;18.13;8.15;;;;;;;1.76;100.00;93349.97;2535600;23;20039;-79
2023/05/18 03:45:48;;;;;;;25.70;9.88;;;;;;;1.76;100.00;93355.25;2519309;23;20071;-79
2023/05/18 03:46:55;;;;;;;21.02;8.60;;;;;;;1.75;100.00;93349.19;2517993;23;20010;-79
2023/05/18 03:48:03;;;;;;;22.15;9.75;;;;;;;1.74;100.00;93355.56;2528958;23;20471;-79
2023/05/18 03:49:12;;;;;;;23.60;8.75;;;;;;;1.70;100.00;93348.72;2535735;23;20006;-81
2023/05/18 03:50:21;;;;;;;18.58;9.02;;;;;;;1.72;100.00;93349.91;2539148;23;20010;-79
2023/05/18 03:51:25;;;;;;;22.40;9.63;;;;;;;1.79;100.00;93354.50;2541757;23;20029;-78
2023/05/18 03:52:33;;;;;;;21.25;9.23;;;;;;;1.75;100.00;93353.69;2540968;23;20073;-79
2023/05/18 03:53:42;;;;;;;14.15;8.60;;;;;;;1.74;100.00;93363.47;2539652;23;20012;-80
2023/05/18 03:54:52;;;;;;;26.00;9.52;;;;;;;1.70;100.00;93348.72;2525201;23;20010;-80
2023/05/18 03:56:02;;;;;;;23.20;9.13;;;;;;;1.69;100.00;93349.84;2514485;23;20375;-80
2023/05/18 03:57:12;;;;;;;24.67;9.68;;;;;;;1.70;100.00;93359.28;2541919;23;20006;-80
2023/05/18 03:58:23;;;;;;;25.00;10.07;;;;;;;1.67;100.00;93354.72;2551283;23;20002;-80
2023/05/18 03:59:34;;;;;;;23.83;9.88;;;;;;;1.67;100.00;93355.50;2546665;23;20040;-79
2023/05/18 04:00:41;;;;;;;;;;;;;;;1.69;100.00;93355.13;2536073;23;20336;-79
2023/05/18 04:01:52;;;;;;;16.63;8.70;;;;;;;1.71;100.00;93358.94;2535230;23;19979;-80
2023/05/18 04:02:55;;;;;;;26.58;10.32;;;;;;;1.72;100.00;93349.91;2535657;23;20010;-80
2023/05/18 04:04:04;;;;;;;22.80;10.35;;;;;;;1.77;100.00;93354.13;2546821;23;20064;-79
2023/05/18 04:05:10;;;;;;;21.52;9.93;;;;;;;1.81;100.00;93359.44;2533990;23;20397;-80
2023/05/18 04:06:15;;;;;;;22.67;10.15;;;;;;;1.99;100.00;93352.56;2523994;23;20097;-80
2023/05/18 04:07:22;;;;;;;21.60;9.35;;;;;;;1.88;100.00;93355.03;2546750;23;20573;-80
2023/05/18 04:08:29;;;;;;;21.23;9.23;;;;;;;1.84;100.00;93348.94;2558412;23;20009;-79
2023/05/18 04:09:36;;;;;;;21.65;10.27;;;;;;;1.75;100.00;93346.56;2546127;23;20045;-79
2023/05/18 04:10:45;;;;;;;23.05;10.10;;;;;;;1.78;100.00;93350.38;2545866;23;20425;-80
2023/05/18 04:11:50;;;;;;;20.65;10.60;;;;;;;1.85;100.00;93353.13;2535487;23;20306;-80
2023/05/18 04:12:59;;;;;;;22.40;9.85;;;;;;;1.80;100.00;93353.44;2522417;23;20353;-80
2023/05/18 04:14:09;;;;;;;23.60;9.23;;;;;;;1.84;100.00;93353.44;2524828;23;20009;-80
2023/05/18 04:15:16;;;;;;;22.88;9.77;;;;;;;1.76;100.00;93358.63;2548103;23;20416;-79
2023/05/18 04:16:26;;;;;;;19.25;9.30;;;;;;;1.71;100.00;93358.94;2546692;23;20436;-79
2023/05/18 04:17:34;;;;;;;18.00;9.95;;;;;;;1.71;100.00;93358.16;2548738;23;20428;-79
2023/05/18 04:18:39;;;;;;;22.00;9.90;;;;;;;1.77;100.00;93357.50;2557300;23;20009;-80
2023/05/18 04:19:48;;;;;;;21.13;9.23;;;;;;;1.83;100.00;93365.13;2558195;23;20020;-79
2023/05/18 04:20:51;;;;;;;25.23;9.82;;;;;;;1.82;100.00;93367.00;2533933;23;20065;-79
2023/05/18 04:21:55;;;;;;;25.20;10.35;;;;;;;1.82;100.00;93366.25;2535147;23;20121;-80
2023/05/18 04:23:03;;;;;;;19.05;10.15;;;;;;;1.84;100.00;93366.63;2546188;23;20006;-80
2023/05/18 04:24:13;;;;;;;23.02;10.05;;;;;;;1.88;100.00;93360.28;2546105;23;20029;-79
2023/05/18 04:25:20;;;;;;;20.60;10.15;;;;;;;1.85;100.00;93362.91;2547910;23;20009;-80
2023/05/18 04:26:30;;;;;;;21.92;9.15;;;;;;;1.83;100.00;93357.22;2545654;23;20012;-79
2023/05/18 04:27:38;;;;;;;26.17;11.77;;;;;;;1.89;100.00;93366.31;2547910;23;20001;-79
2023/05/18 04:28:42;;;;;;;23.13;10.02;;;;;;;1.91;100.00;93366.75;2557924;23;20008;-79
2023/05/18 04:29:51;;;;;;;23.33;10.68;;;;;;;1.93;100.00;93369.78;2545878;23;20663;-81
2023/05/18 04:31:01;;;;;;;22.10;10.00;;;;;;;2.06;100.00;93368.47;2535753;23;20009;-80
2023/05/18 04:32:09;;;;;;;24.60;10.88;;;;;;;2.09;100.00;93364.38;2537859;23;20001;-79
2023/05/18 04:33:14;;;;;;;22.70;9.75;;;;;;;2.07;100.00;93375.28;2552572;23;20024;-79
2023/05/18 04:34:23;;;;;;;19.42;9.63;;;;;;;2.04;100.00;93377.84;2551089;23;20057;-80
2023/05/18 04:35:34;;;;;;;25.17;10.45;;;;;;;2.05;100.00;93376.72;2527775;23;20006;-79
2023/05/18 04:36:42;;;;;;;21.30;9.73;;;;;;;1.98;100.00;93370.25;2515657;23;20009;-79
2023/05/18 04:37:48;;;;;;;24.25;10.73;;;;;;;2.04;100.00;93375.97;2534998;23;20045;-79
2023/05/18 04:38:57;;;;;;;20.55;9.70;;;;;;;2.04;100.00;93377.84;2534582;23;20006;-79
2023/05/18 04:40:06;;;;;;;19.25;9.20;;;;;;;2.00;100.00;93368.00;2523209;23;20017;-80
2023/05/18 04:41:19;;;;;;;23.33;10.52;;;;;;;2.05;100.00;93376.72;2536982;23;20097;-79
2023/05/18 04:42:28;;;;;;;24.10;10.32;;;;;;;2.08;100.00;93366.25;2533316;23;20086;-81
2023/05/18 04:43:35;;;;;;;25.83;10.30;;;;;;;2.09;100.00;93367.00;2525044;23;20041;-79
2023/05/18 04:44:39;;;;;;;23.65;10.73;;;;;;;2.13;100.00;93367.81;2534590;23;20005;-79
2023/05/18 04:45:50;;;;;;;31.65;13.43;;;;;;;2.12;100.00;93371.56;2534494;23;20393;-79
2023/05/18 04:46:53;;;;;;;24.60;12.93;;;;;;;2.19;100.00;93367.13;2535672;23;20134;-79
2023/05/18 04:48:00;;;;;;;24.25;11.70;;;;;;;2.22;100.00;93366.44;2534277;23;20013;-79
2023/05/18 04:49:10;;;;;;;26.10;10.55;;;;;;;2.18;100.00;93368.25;2535014;23;20006;-80
2023/05/18 04:50:26;;;;;;;25.10;9.90;;;;;;;2.20;100.00;93367.94;2535664;23;20032;-79
2023/05/18 04:51:30;;;;;;;28.30;11.52;;;;;;;2.19;100.00;93361.88;2549101;23;20432;-80
2023/05/18 04:52:35;;;;;;;22.15;10.50;;;;;;;2.22;100.00;93365.69;2558821;23;20005;-80
2023/05/18 04:53:40;;;;;;;21.88;9.57;;;;;;;2.22;100.00;93370.94;2546751;23;20016;-80
2023/05/18 04:54:46;;;;;;;24.23;11.20;;;;;;;2.27;100.00;93362.72;2522852;23;20002;-80
2023/05/18 04:55:53;;;;;;;24.80;11.65;;;;;;;2.37;100.00;93370.03;2536510;23;20045;-79
2023/05/18 04:57:02;;;;;;;23.77;11.23;;;;;;;2.38;100.00;93368.16;2546422;23;20451;-80
2023/05/18 04:58:26;;;;;;;26.13;11.07;;;;;;;2.34;100.00;93368.09;2546166;23;20088;-80
2023/05/18 04:59:35;;;;;;;26.40;10.80;;;;;;;2.35;100.00;93364.34;2526469;23;20013;-83
2023/05/18 05:00:44;;;;;;;19.02;9.93;;;;;;;2.31;100.00;93366.19;2537255;23;19998;-79
2023/05/18 05:02:06;;;;;;;26.13;10.32;;;;;;;2.33;100.00;93371.09;2545718;23;20001;-80
2023/05/18 05:03:10;;;;;;;24.75;11.40;;;;;;;2.36;100.00;93376.41;2546944;23;20002;-79
2023/05/18 05:04:17;;;;;;;24.67;10.30;;;;;;;2.38;100.00;93368.16;2531306;23;20010;-82
2023/05/18 05:05:30;;;;;;;21.92;11.20;;;;;;;2.44;100.00;93372.75;2524064;23;20315;-79
2023/05/18 05:06:42;;;;;;;26.77;11.02;;;;;;;2.41;100.00;93372.69;2547663;23;20005;-80
2023/05/18 05:08:00;;;;;;;26.02;10.60;;;;;;;2.45;100.00;93370.88;2545889;23;20355;-79
2023/05/18 05:09:08;;;;;;;19.02;10.48;;;;;;;2.56;100.00;93374.41;2546022;23;20005;-80
2023/05/18 05:10:16;;;;;;;24.77;10.88;;;;;;;2.57;100.00;93375.94;2535042;23;19998;-80
2023/05/18 05:11:26;;;;;;;25.27;11.23;;;;;;;2.58;100.00;93371.41;2534154;23;20006;-80
2023/05/18 05:12:36;;;;;;;24.75;10.70;;;;;;;2.57;100.00;93364.63;2533563;23;20010;-80
2023/05/18 05:13:42;;;;;;;28.70;12.02;;;;;;;2.64;100.00;93372.63;2547059;23;20001;-79
2023/05/18 05:14:49;;;;;;;28.65;10.80;;;;;;;2.71;100.00;93375.34;2545237;23;20017;-79
2023/05/18 05:15:57;;;;;;;23.70;10.45;;;;;;;2.74;100.00;93370.09;2521476;23;20413;-80
2023/05/18 05:17:03;;;;;;;24.10;10.95;;;;;;;2.79;100.00;93382.22;2523925;23;20100;-79
2023/05/18 05:18:08;;;;;;;23.00;10.90;;;;;;;2.81;100.00;93384.50;2534404;23;20017;-81
2023/05/18 05:19:14;;;;;;;27.20;10.52;;;;;;;2.87;100.00;93368.00;2533686;23;20006;-79
2023/05/18 05:20:21;;;;;;;24.17;11.05;;;;;;;2.84;100.00;93367.94;2522584;23;20325;-79
2023/05/18 05:21:28;;;;;;;25.70;10.63;;;;;;;2.89;100.00;93373.66;2523165;23;20075;-79
2023/05/18 05:22:35;;;;;;;22.85;10.50;;;;;;;2.90;100.00;93372.56;2522759;23;20006;-80
2023/05/18 05:23:40;;;;;;;21.65;10.18;;;;;;;2.97;100.00;93371.88;2524379;23;20009;-80
2023/05/18 05:24:47;;;;;;;24.67;10.98;;;;;;;2.98;100.00;93376.78;2534396;23;20017;-80